»·PEaware :: N333ZS KBUR-KLAS

N333ZS :: KBUR-KLAS

FLIGHT INFORMATION

Flight Status: Arrived
Operator: Privately registered:
United States
More flights under this callsign
Pilot: Judd H. (29974)
Aircraft: CESSNA 182 SKYLANE
(C182)
More flights by this aircraft type
Origin: KBUR Bob Hope-Burbank
United States
Destination: KLAS McCarran Intl
United States
More flights between these airports :: More routes between these airports
Route: +VNY3 DAG CRESO4
File this flight plan on PilotEdge
Remarks:
Altitude:
(Current/Filed)
9,000ft
Speed:
(Current/Filed)
120kts
Departed: 17-Oct-20 06:02 PM
Arrived: 17-Oct-20 07:44 PM
Distance/Time
Traveled:
193nm/1:42
Distance/Time
To Go:
Arrived

Flight Plot

Page will automatically refresh every two minutes.

Flight plan parsing failed; only flown route is shown


Map Options




Map Legend


Flown Route
Filed Route
Departure Airport
Arrival Airport
Navaid (VOR, NDB)
Fix

Horizontal Profiles

Position Reports

Time Latitude Longitude Heading Altitude Ground
Speed
17-Oct-20 17:46 34.196450 -118.368264 179 724ft 0kts
17-Oct-20 17:47 34.196449 -118.368264 179 724ft 0kts
17-Oct-20 17:48 34.196448 -118.368264 179 724ft 0kts
17-Oct-20 17:49 34.196447 -118.368264 179 724ft 0kts
17-Oct-20 17:50 34.196446 -118.368264 179 724ft 0kts
17-Oct-20 17:50 34.196445 -118.368264 179 724ft 0kts
17-Oct-20 17:52 34.196444 -118.368264 179 724ft 0kts
17-Oct-20 17:53 34.196443 -118.368264 179 724ft 0kts
17-Oct-20 17:54 34.196442 -118.368264 179 724ft 0kts
17-Oct-20 17:55 34.196441 -118.368264 179 724ft 0kts
17-Oct-20 17:55 34.196440 -118.368264 179 724ft 0kts
17-Oct-20 17:57 34.196439 -118.368264 179 724ft 0kts
17-Oct-20 17:57 34.196438 -118.368264 179 724ft 0kts
17-Oct-20 17:58 34.196892 -118.367062 275 724ft 9kts
17-Oct-20 17:59 34.197091 -118.368866 315 724ft 0kts
17-Oct-20 18:00 34.197092 -118.368868 315 724ft 0kts
17-Oct-20 18:01 34.197813 -118.366859 92 724ft 50kts
17-Oct-20 18:02 34.190972 -118.339558 165 1407ft 100kts
17-Oct-20 18:03 34.171012 -118.362129 232 2224ft 107kts
17-Oct-20 18:04 34.152483 -118.389801 231 3020ft 106kts
17-Oct-20 18:05 34.164919 -118.414773 351 3802ft 110kts
17-Oct-20 18:06 34.195819 -118.420219 346 4485ft 111kts
17-Oct-20 18:07 34.226514 -118.426100 344 5120ft 110kts
17-Oct-20 18:08 34.255729 -118.432643 345 5822ft 103kts
17-Oct-20 18:09 34.283579 -118.438600 348 6478ft 101kts
17-Oct-20 18:10 34.311726 -118.442868 348 7205ft 101kts
17-Oct-20 18:11 34.339769 -118.447222 349 7915ft 101kts
17-Oct-20 18:12 34.367959 -118.451245 350 8583ft 102kts
17-Oct-20 18:13 34.392914 -118.439329 57 9151ft 117kts
17-Oct-20 18:14 34.410964 -118.407159 49 9713ft 116kts
17-Oct-20 18:15 34.429890 -118.375642 46 10234ft 116kts
17-Oct-20 18:16 34.449121 -118.343757 50 10718ft 117kts
17-Oct-20 18:17 34.469152 -118.310941 50 11010ft 130kts
17-Oct-20 18:18 34.493997 -118.275131 42 11024ft 146kts
17-Oct-20 18:19 34.521448 -118.237911 42 11024ft 149kts
17-Oct-20 18:20 34.547777 -118.198205 49 11034ft 151kts
17-Oct-20 18:21 34.573015 -118.157239 48 11038ft 152kts
17-Oct-20 18:22 34.598430 -118.116248 48 11039ft 152kts
17-Oct-20 18:23 34.623974 -118.075212 48 11039ft 151kts
17-Oct-20 18:24 34.635450 -118.025508 76 11039ft 155kts
17-Oct-20 18:25 34.642025 -117.973467 79 11039ft 156kts
17-Oct-20 18:26 34.647998 -117.920924 79 11038ft 156kts
17-Oct-20 18:27 34.653630 -117.868521 80 11037ft 156kts
17-Oct-20 18:28 34.658998 -117.816085 80 11034ft 155kts
17-Oct-20 18:29 34.665490 -117.761753 75 11032ft 156kts
17-Oct-20 18:30 34.676779 -117.712181 71 11046ft 149kts
17-Oct-20 18:31 34.688646 -117.664010 71 11055ft 149kts
17-Oct-20 18:32 34.700806 -117.615676 71 11063ft 148kts
17-Oct-20 18:33 34.713375 -117.568007 70 11069ft 148kts
17-Oct-20 18:34 34.726267 -117.520583 70 11071ft 147kts
17-Oct-20 18:35 34.739021 -117.473302 71 11074ft 147kts
17-Oct-20 18:36 34.752588 -117.426201 70 10994ft 146kts
17-Oct-20 18:37 34.765913 -117.379904 70 10992ft 144kts
17-Oct-20 18:38 34.778566 -117.333399 75 10994ft 144kts
17-Oct-20 18:39 34.787715 -117.286090 76 10994ft 144kts
17-Oct-20 18:40 34.797627 -117.238816 74 10994ft 144kts
17-Oct-20 18:41 34.808135 -117.191877 83 10987ft 144kts
17-Oct-20 18:42 34.819415 -117.143465 67 10970ft 156kts
17-Oct-20 18:43 34.833462 -117.094822 68 10967ft 150kts
17-Oct-20 18:44 34.847142 -117.046600 68 10960ft 150kts
17-Oct-20 18:45 34.860101 -116.998245 75 10954ft 150kts
17-Oct-20 18:46 34.870025 -116.948398 73 10940ft 151kts
17-Oct-20 18:47 34.880396 -116.898577 73 10927ft 152kts
17-Oct-20 18:48 34.893453 -116.849825 68 10924ft 151kts
17-Oct-20 18:49 34.906785 -116.801227 70 10922ft 151kts
17-Oct-20 18:50 34.919226 -116.752045 70 10923ft 151kts
17-Oct-20 18:51 34.931647 -116.703004 70 10926ft 151kts
17-Oct-20 18:52 34.944052 -116.654027 70 10929ft 151kts
17-Oct-20 18:53 34.956460 -116.605058 70 10934ft 151kts
17-Oct-20 18:54 34.977337 -116.559002 48 10940ft 165kts
17-Oct-20 18:55 35.005594 -116.521120 44 10937ft 145kts
17-Oct-20 18:56 35.034272 -116.487236 39 10949ft 142kts
17-Oct-20 18:57 35.063265 -116.454368 39 10949ft 142kts
17-Oct-20 18:58 35.090983 -116.418823 44 10955ft 146kts
17-Oct-20 18:59 35.119052 -116.382774 42 10954ft 146kts
17-Oct-20 19:00 35.147409 -116.346980 42 10955ft 147kts
17-Oct-20 19:01 35.176086 -116.311595 41 10954ft 146kts
17-Oct-20 19:02 35.205050 -116.276221 41 10955ft 146kts
17-Oct-20 19:03 35.232049 -116.239120 73 10947ft 150kts
17-Oct-20 19:04 35.237712 -116.188491 80 10957ft 151kts
17-Oct-20 19:05 35.243136 -116.137481 80 10956ft 151kts
17-Oct-20 19:06 35.248522 -116.086423 80 10956ft 151kts
17-Oct-20 19:07 35.253572 -116.035144 81 10956ft 151kts
17-Oct-20 19:08 35.258212 -115.983850 81 10956ft 151kts
17-Oct-20 19:09 35.265774 -115.933353 63 10942ft 149kts
17-Oct-20 19:10 35.283168 -115.887148 62 10941ft 149kts
17-Oct-20 19:11 35.300685 -115.841007 62 10941ft 149kts
17-Oct-20 19:12 35.317832 -115.794736 62 10938ft 148kts
17-Oct-20 19:13 35.340022 -115.752856 46 10937ft 146kts
17-Oct-20 19:14 35.366593 -115.714188 46 10770ft 153kts
17-Oct-20 19:15 35.394583 -115.674653 44 10353ft 155kts
17-Oct-20 19:16 35.423394 -115.635464 44 10016ft 148kts
17-Oct-20 19:17 35.449812 -115.599033 45 10018ft 140kts
17-Oct-20 19:18 35.475869 -115.563071 44 10023ft 142kts
17-Oct-20 19:19 35.502691 -115.527191 41 10022ft 142kts
17-Oct-20 19:20 35.530555 -115.492532 41 10020ft 142kts
17-Oct-20 19:21 35.558004 -115.457457 48 10019ft 143kts
17-Oct-20 19:22 35.581714 -115.420874 47 9928ft 114kts
17-Oct-20 19:23 35.603231 -115.390213 43 9069ft 135kts
17-Oct-20 19:24 35.629318 -115.355064 48 8164ft 137kts
17-Oct-20 19:25 35.655197 -115.319674 45 7656ft 147kts
17-Oct-20 19:26 35.683968 -115.282017 46 7057ft 148kts
17-Oct-20 19:27 35.710889 -115.248241 42 6997ft 135kts
17-Oct-20 19:28 35.738509 -115.215111 42 7008ft 141kts
17-Oct-20 19:29 35.766148 -115.180401 47 7002ft 143kts
17-Oct-20 19:31 35.800567 -115.160439 8 6998ft 140kts
17-Oct-20 19:32 35.839026 -115.151147 8 7000ft 140kts
17-Oct-20 19:33 35.877452 -115.141951 8 7000ft 141kts
17-Oct-20 19:34 35.916026 -115.132830 8 7000ft 141kts
17-Oct-20 19:35 35.954663 -115.123919 8 7000ft 142kts
17-Oct-20 19:36 35.993594 -115.115046 8 7000ft 142kts
17-Oct-20 19:37 36.034065 -115.106186 11 6657ft 156kts
17-Oct-20 19:38 36.072688 -115.096102 11 5683ft 132kts
17-Oct-20 19:39 36.107433 -115.088006 6 4929ft 120kts
17-Oct-20 19:40 36.140380 -115.083133 5 4234ft 121kts
17-Oct-20 19:41 36.152728 -115.113984 255 3580ft 111kts
17-Oct-20 19:42 36.131724 -115.136959 208 3076ft 104kts
17-Oct-20 19:43 36.106164 -115.152649 202 2373ft 98kts
17-Oct-20 19:44 36.089396 -115.162452 232 2118ft 13kts
17-Oct-20 19:45 36.089618 -115.164224 262 2118ft 17kts
17-Oct-20 19:46 36.086167 -115.168027 239 2118ft 0kts
17-Oct-20 19:47 36.086167 -115.168027 239 2118ft 0kts
17-Oct-20 19:48 36.086167 -115.168027 239 2118ft 0kts
17-Oct-20 19:48 36.086167 -115.168027 239 2118ft 0kts
17-Oct-20 19:50 36.086167 -115.168027 239 2118ft 0kts
17-Oct-20 19:50 36.086167 -115.168027 239 2118ft 0kts
17-Oct-20 19:52 36.086167 -115.168027 239 2118ft 0kts
17-Oct-20 19:52 36.086167 -115.168027 239 2118ft 0kts
17-Oct-20 19:53 36.086167 -115.168027 239 2118ft 0kts
17-Oct-20 19:54 36.086167 -115.168027 239 2118ft 0kts
17-Oct-20 19:55 36.086167 -115.168027 239 2118ft 0kts
17-Oct-20 19:56 36.086167 -115.168027 239 2118ft 0kts
17-Oct-20 19:57 36.086167 -115.168027 239 2118ft 0kts
17-Oct-20 19:58 36.086167 -115.168027 239 2118ft 0kts

Navigation Log

Ident Type
Flight plan parsing failed, navigation log unavailable